sensor_id;sensor_type;location;lat;lon;timestamp;pressure;altitude;pressure_sealevel;temperature;humidity
73936;BME280;62287;50.858;0.252;2023-04-25T00:00:22;101182.85;;;15.03;36.21
73936;BME280;62287;50.858;0.252;2023-04-25T00:00:53;101183.89;;;15.17;36.18
73936;BME280;62287;50.858;0.252;2023-04-25T00:01:24;101182.12;;;15.40;36.23
73936;BME280;62287;50.858;0.252;2023-04-25T00:01:55;101181.22;;;15.20;36.00
73936;BME280;62287;50.858;0.252;2023-04-25T00:02:26;101181.54;;;14.86;36.01
73936;BME280;62287;50.858;0.252;2023-04-25T00:02:57;101180.73;;;15.41;36.07
73936;BME280;62287;50.858;0.252;2023-04-25T00:03:28;101181.75;;;14.67;36.13
73936;BME280;62287;50.858;0.252;2023-04-25T00:03:59;101181.47;;;15.26;36.02
73936;BME280;62287;50.858;0.252;2023-04-25T00:04:29;101181.07;;;15.51;36.32
73936;BME280;62287;50.858;0.252;2023-04-25T00:05:01;101180.28;;;15.30;36.06
73936;BME280;62287;50.858;0.252;2023-04-25T00:05:32;101180.16;;;15.56;36.20
73936;BME280;62287;50.858;0.252;2023-04-25T00:06:03;101182.17;;;15.79;36.33
73936;BME280;62287;50.858;0.252;2023-04-25T00:06:34;101181.94;;;15.24;36.43
73936;BME280;62287;50.858;0.252;2023-04-25T00:07:05;101183.77;;;15.07;36.39
73936;BME280;62287;50.858;0.252;2023-04-25T00:07:36;101186.58;;;15.46;36.26
73936;BME280;62287;50.858;0.252;2023-04-25T00:08:07;101187.40;;;15.28;36.59
73936;BME280;62287;50.858;0.252;2023-04-25T00:08:38;101184.92;;;14.90;36.56
73936;BME280;62287;50.858;0.252;2023-04-25T00:09:10;101188.98;;;15.11;36.73
73936;BME280;62287;50.858;0.252;2023-04-25T00:09:41;101189.00;;;14.83;36.73
73936;BME280;62287;50.858;0.252;2023-04-25T00:10:13;101190.47;;;15.17;36.67
73936;BME280;62287;50.858;0.252;2023-04-25T00:10:44;101194.18;;;14.73;36.76
73936;BME280;62287;50.858;0.252;2023-04-25T00:11:15;101197.99;;;15.11;36.82
73936;BME280;62287;50.858;0.252;2023-04-25T00:11:46;101197.84;;;14.79;36.75
73936;BME280;62287;50.858;0.252;2023-04-25T00:12:17;101200.04;;;15.01;36.91
73936;BME280;62287;50.858;0.252;2023-04-25T00:12:47;101201.03;;;15.05;36.86
73936;BME280;62287;50.858;0.252;2023-04-25T00:13:18;101202.05;;;14.80;36.82
73936;BME280;62287;50.858;0.252;2023-04-25T00:13:50;101201.58;;;14.75;36.70
73936;BME280;62287;50.858;0.252;2023-04-25T00:14:21;101200.20;;;14.97;36.86
73936;BME280;62287;50.858;0.252;2023-04-25T00:14:52;101200.22;;;15.09;36.68
73936;BME280;62287;50.858;0.252;2023-04-25T00:15:23;101201.12;;;14.67;36.78
73936;BME280;62287;50.858;0.252;2023-04-25T00:15:54;101201.91;;;14.76;36.66
73936;BME280;62287;50.858;0.252;2023-04-25T00:16:25;101201.95;;;14.70;36.72
73936;BME280;62287;50.858;0.252;2023-04-25T00:16:56;101200.57;;;14.54;36.85
73936;BME280;62287;50.858;0.252;2023-04-25T00:17:27;101201.47;;;14.65;36.78
73936;BME280;62287;50.858;0.252;2023-04-25T00:17:58;101198.18;;;14.90;36.59
73936;BME280;62287;50.858;0.252;2023-04-25T00:18:29;101200.03;;;14.71;36.68
73936;BME280;62287;50.858;0.252;2023-04-25T00:19:00;101199.42;;;14.95;36.62
73936;BME280;62287;50.858;0.252;2023-04-25T00:19:31;101200.86;;;14.78;36.56
73936;BME280;62287;50.858;0.252;2023-04-25T00:20:02;101204.49;;;14.67;36.78
73936;BME280;62287;50.858;0.252;2023-04-25T00:20:33;101204.78;;;14.86;36.70
73936;BME280;62287;50.858;0.252;2023-04-25T00:21:04;101205.19;;;14.71;36.84
73936;BME280;62287;50.858;0.252;2023-04-25T00:21:35;101205.22;;;14.63;36.75
73936;BME280;62287;50.858;0.252;2023-04-25T00:22:07;101208.90;;;15.29;36.65
73936;BME280;62287;50.858;0.252;2023-04-25T00:22:38;101212.56;;;15.26;36.42
73936;BME280;62287;50.858;0.252;2023-04-25T00:23:09;101210.23;;;14.87;36.41
73936;BME280;62287;50.858;0.252;2023-04-25T00:23:41;101212.99;;;14.91;36.39
73936;BME280;62287;50.858;0.252;2023-04-25T00:24:12;101213.93;;;15.37;36.32
73936;BME280;62287;50.858;0.252;2023-04-25T00:24:43;101210.39;;;15.05;36.18
73936;BME280;62287;50.858;0.252;2023-04-25T00:25:14;101216.41;;;14.98;36.22
73936;BME280;62287;50.858;0.252;2023-04-25T00:26:32;101218.27;;;15.51;36.08
73936;BME280;62287;50.858;0.252;2023-04-25T00:27:03;101214.45;;;15.23;36.01
73936;BME280;62287;50.858;0.252;2023-04-25T00:27:34;101215.18;;;15.59;35.93
73936;BME280;62287;50.858;0.252;2023-04-25T00:28:05;101218.55;;;15.39;35.76
73936;BME280;62287;50.858;0.252;2023-04-25T00:28:36;101216.89;;;15.25;35.80
73936;BME280;62287;50.858;0.252;2023-04-25T00:29:07;101215.92;;;14.95;35.83
73936;BME280;62287;50.858;0.252;2023-04-25T00:29:38;101217.04;;;15.23;35.79
73936;BME280;62287;50.858;0.252;2023-04-25T00:30:10;101219.17;;;15.06;35.97
73936;BME280;62287;50.858;0.252;2023-04-25T00:30:41;101217.88;;;14.55;36.10
73936;BME280;62287;50.858;0.252;2023-04-25T00:31:13;101220.34;;;15.15;36.02
73936;BME280;62287;50.858;0.252;2023-04-25T00:32:24;101220.77;;;15.15;35.88
73936;BME280;62287;50.858;0.252;2023-04-25T00:32:55;101219.62;;;15.32;35.84
73936;BME280;62287;50.858;0.252;2023-04-25T00:33:26;101218.95;;;15.32;35.81
73936;BME280;62287;50.858;0.252;2023-04-25T00:33:57;101219.96;;;14.72;36.01
73936;BME280;62287;50.858;0.252;2023-04-25T00:34:28;101222.65;;;15.50;36.05
73936;BME280;62287;50.858;0.252;2023-04-25T00:34:59;101217.55;;;15.14;36.03
73936;BME280;62287;50.858;0.252;2023-04-25T00:35:30;101222.05;;;14.94;36.09
73936;BME280;62287;50.858;0.252;2023-04-25T00:36:01;101222.07;;;15.45;36.08
73936;BME280;62287;50.858;0.252;2023-04-25T00:36:32;101223.63;;;14.48;36.22
73936;BME280;62287;50.858;0.252;2023-04-25T00:37:03;101222.73;;;15.29;36.17
73936;BME280;62287;50.858;0.252;2023-04-25T00:37:34;101219.84;;;15.51;35.99
73936;BME280;62287;50.858;0.252;2023-04-25T00:38:05;101225.55;;;15.44;36.13
73936;BME280;62287;50.858;0.252;2023-04-25T00:38:36;101221.16;;;15.52;36.04
73936;BME280;62287;50.858;0.252;2023-04-25T00:39:07;101224.93;;;15.35;36.19
73936;BME280;62287;50.858;0.252;2023-04-25T00:39:38;101225.03;;;15.07;36.25
73936;BME280;62287;50.858;0.252;2023-04-25T00:40:10;101221.00;;;15.14;36.22
73936;BME280;62287;50.858;0.252;2023-04-25T00:40:41;101219.93;;;15.08;36.10
73936;BME280;62287;50.858;0.252;2023-04-25T00:41:12;101222.62;;;15.42;36.21
73936;BME280;62287;50.858;0.252;2023-04-25T00:41:44;101223.03;;;15.57;36.22
73936;BME280;62287;50.858;0.252;2023-04-25T00:42:16;101226.71;;;15.39;36.06
73936;BME280;62287;50.858;0.252;2023-04-25T00:42:47;101228.81;;;15.52;36.21
73936;BME280;62287;50.858;0.252;2023-04-25T00:43:18;101227.32;;;15.63;36.11
73936;BME280;62287;50.858;0.252;2023-04-25T00:43:49;101228.04;;;15.46;36.01
73936;BME280;62287;50.858;0.252;2023-04-25T00:44:21;101227.45;;;15.77;36.02
73936;BME280;62287;50.858;0.252;2023-04-25T00:44:52;101229.95;;;15.59;36.18
73936;BME280;62287;50.858;0.252;2023-04-25T00:45:28;101232.56;;;15.03;36.31
73936;BME280;62287;50.858;0.252;2023-04-25T00:45:59;101233.84;;;15.67;36.17
73936;BME280;62287;50.858;0.252;2023-04-25T00:46:31;101233.31;;;15.21;36.09
73936;BME280;62287;50.858;0.252;2023-04-25T00:47:02;101236.32;;;15.40;36.06
73936;BME280;62287;50.858;0.252;2023-04-25T00:47:33;101235.82;;;15.23;36.12
73936;BME280;62287;50.858;0.252;2023-04-25T00:48:06;101232.04;;;15.70;36.02
73936;BME280;62287;50.858;0.252;2023-04-25T00:48:37;101232.58;;;15.14;36.21
73936;BME280;62287;50.858;0.252;2023-04-25T00:49:08;101235.66;;;15.13;36.19
73936;BME280;62287;50.858;0.252;2023-04-25T00:49:39;101233.68;;;15.60;36.13
73936;BME280;62287;50.858;0.252;2023-04-25T00:50:11;101231.04;;;15.66;36.03
73936;BME280;62287;50.858;0.252;2023-04-25T00:50:43;101233.77;;;15.16;36.20
73936;BME280;62287;50.858;0.252;2023-04-25T00:51:20;101235.27;;;15.46;36.21
73936;BME280;62287;50.858;0.252;2023-04-25T00:51:51;101237.86;;;15.53;36.18
73936;BME280;62287;50.858;0.252;2023-04-25T00:52:22;101238.80;;;15.12;36.24
73936;BME280;62287;50.858;0.252;2023-04-25T00:52:54;101237.63;;;15.45;36.28
73936;BME280;62287;50.858;0.252;2023-04-25T00:53:27;101240.38;;;15.40;36.29
73936;BME280;62287;50.858;0.252;2023-04-25T00:53:58;101242.27;;;15.17;36.20
73936;BME280;62287;50.858;0.252;2023-04-25T00:54:30;101242.41;;;15.06;36.31
73936;BME280;62287;50.858;0.252;2023-04-25T00:55:01;101243.70;;;15.11;36.22
73936;BME280;62287;50.858;0.252;2023-04-25T00:55:32;101244.08;;;15.03;36.33
73936;BME280;62287;50.858;0.252;2023-04-25T00:56:03;101243.97;;;15.30;36.35
73936;BME280;62287;50.858;0.252;2023-04-25T00:56:34;101244.47;;;15.16;36.22
73936;BME280;62287;50.858;0.252;2023-04-25T00:57:05;101247.23;;;15.24;36.16
73936;BME280;62287;50.858;0.252;2023-04-25T00:57:37;101248.25;;;15.34;36.28
73936;BME280;62287;50.858;0.252;2023-04-25T00:58:08;101247.06;;;15.43;36.29
73936;BME280;62287;50.858;0.252;2023-04-25T00:58:40;101249.05;;;15.02;36.25
73936;BME280;62287;50.858;0.252;2023-04-25T00:59:12;101249.05;;;14.57;36.25
73936;BME280;62287;50.858;0.252;2023-04-25T00:59:45;101250.65;;;15.51;36.05
73936;BME280;62287;50.858;0.252;2023-04-25T01:00:17;101251.42;;;15.10;36.11
73936;BME280;62287;50.858;0.252;2023-04-25T01:00:50;101250.22;;;15.13;36.02
73936;BME280;62287;50.858;0.252;2023-04-25T01:01:21;101249.30;;;15.52;36.00
73936;BME280;62287;50.858;0.252;2023-04-25T01:01:52;101249.11;;;15.19;35.99
73936;BME280;62287;50.858;0.252;2023-04-25T01:02:23;101248.16;;;15.12;35.95
73936;BME280;62287;50.858;0.252;2023-04-25T01:02:54;101249.12;;;15.18;36.02
73936;BME280;62287;50.858;0.252;2023-04-25T01:03:25;101250.72;;;15.09;36.07
73936;BME280;62287;50.858;0.252;2023-04-25T01:03:58;101250.34;;;15.14;36.00
73936;BME280;62287;50.858;0.252;2023-04-25T01:04:29;101250.46;;;15.08;36.10
73936;BME280;62287;50.858;0.252;2023-04-25T01:05:00;101252.63;;;15.16;36.01
73936;BME280;62287;50.858;0.252;2023-04-25T01:05:31;101250.68;;;15.33;36.05
73936;BME280;62287;50.858;0.252;2023-04-25T01:06:02;101251.09;;;15.02;36.13
73936;BME280;62287;50.858;0.252;2023-04-25T01:06:33;101251.77;;;15.45;36.11
73936;BME280;62287;50.858;0.252;2023-04-25T01:07:05;101253.72;;;15.50;36.15
73936;BME280;62287;50.858;0.252;2023-04-25T01:07:36;101253.70;;;15.21;36.10
73936;BME280;62287;50.858;0.252;2023-04-25T01:08:07;101255.25;;;15.40;36.29
73936;BME280;62287;50.858;0.252;2023-04-25T01:08:39;101256.58;;;14.65;36.57
73936;BME280;62287;50.858;0.252;2023-04-25T01:09:10;101258.16;;;15.12;36.60
73936;BME280;62287;50.858;0.252;2023-04-25T01:09:41;101257.05;;;15.34;36.42
73936;BME280;62287;50.858;0.252;2023-04-25T01:10:12;101258.25;;;15.15;36.54
73936;BME280;62287;50.858;0.252;2023-04-25T01:10:43;101257.32;;;15.36;36.38
73936;BME280;62287;50.858;0.252;2023-04-25T01:11:14;101257.34;;;15.42;36.31
73936;BME280;62287;50.858;0.252;2023-04-25T01:11:45;101258.86;;;15.31;36.34
73936;BME280;62287;50.858;0.252;2023-04-25T01:12:16;101257.28;;;15.77;36.28
73936;BME280;62287;50.858;0.252;2023-04-25T01:12:47;101257.18;;;15.48;36.11
73936;BME280;62287;50.858;0.252;2023-04-25T01:13:19;101259.33;;;15.54;36.12
73936;BME280;62287;50.858;0.252;2023-04-25T01:13:50;101260.68;;;15.45;36.19
73936;BME280;62287;50.858;0.252;2023-04-25T01:14:21;101259.78;;;15.38;36.26
73936;BME280;62287;50.858;0.252;2023-04-25T01:14:53;101261.40;;;15.03;36.17
73936;BME280;62287;50.858;0.252;2023-04-25T01:15:24;101260.60;;;15.42;36.18
73936;BME280;62287;50.858;0.252;2023-04-25T01:15:55;101260.69;;;15.48;36.08
73936;BME280;62287;50.858;0.252;2023-04-25T01:16:26;101258.68;;;15.45;36.16
73936;BME280;62287;50.858;0.252;2023-04-25T01:16:58;101260.07;;;15.10;36.09
73936;BME280;62287;50.858;0.252;2023-04-25T01:17:29;101257.22;;;15.26;36.28
73936;BME280;62287;50.858;0.252;2023-04-25T01:18:00;101259.36;;;15.25;36.24
73936;BME280;62287;50.858;0.252;2023-04-25T01:18:31;101258.73;;;15.28;36.23
73936;BME280;62287;50.858;0.252;2023-04-25T01:19:05;101258.65;;;15.25;36.24
73936;BME280;62287;50.858;0.252;2023-04-25T01:19:39;101257.56;;;15.21;36.35
73936;BME280;62287;50.858;0.252;2023-04-25T01:20:11;101256.61;;;15.04;36.18
73936;BME280;62287;50.858;0.252;2023-04-25T01:20:43;101255.99;;;15.41;36.18
73936;BME280;62287;50.858;0.252;2023-04-25T01:21:14;101255.54;;;15.04;36.08
73936;BME280;62287;50.858;0.252;2023-04-25T01:21:45;101254.90;;;15.45;36.08
73936;BME280;62287;50.858;0.252;2023-04-25T01:22:16;101255.21;;;15.28;36.16
73936;BME280;62287;50.858;0.252;2023-04-25T01:22:47;101253.72;;;15.22;36.17
73936;BME280;62287;50.858;0.252;2023-04-25T01:23:20;101254.73;;;15.43;36.02
73936;BME280;62287;50.858;0.252;2023-04-25T01:23:51;101255.21;;;14.44;36.08
73936;BME280;62287;50.858;0.252;2023-04-25T01:24:22;101254.23;;;15.00;36.27
73936;BME280;62287;50.858;0.252;2023-04-25T01:24:53;101253.24;;;15.28;36.21
73936;BME280;62287;50.858;0.252;2023-04-25T01:25:24;101253.71;;;14.44;36.19
73936;BME280;62287;50.858;0.252;2023-04-25T01:25:55;101253.80;;;14.94;36.47
73936;BME280;62287;50.858;0.252;2023-04-25T01:26:27;101251.51;;;14.75;36.72
73936;BME280;62287;50.858;0.252;2023-04-25T01:26:58;101253.23;;;14.40;36.93
73936;BME280;62287;50.858;0.252;2023-04-25T01:27:29;101254.70;;;14.13;36.88
73936;BME280;62287;50.858;0.252;2023-04-25T01:28:00;101254.69;;;14.62;36.82
73936;BME280;62287;50.858;0.252;2023-04-25T01:28:33;101256.68;;;14.19;36.88
73936;BME280;62287;50.858;0.252;2023-04-25T01:29:04;101257.19;;;14.61;36.76
73936;BME280;62287;50.858;0.252;2023-04-25T01:29:36;101256.65;;;14.48;36.64
73936;BME280;62287;50.858;0.252;2023-04-25T01:30:08;101258.42;;;14.52;36.82
73936;BME280;62287;50.858;0.252;2023-04-25T01:30:40;101257.20;;;14.48;36.91
73936;BME280;62287;50.858;0.252;2023-04-25T01:31:12;101259.40;;;14.76;36.79
73936;BME280;62287;50.858;0.252;2023-04-25T01:31:44;101257.56;;;14.92;36.64
73936;BME280;62287;50.858;0.252;2023-04-25T01:32:16;101259.27;;;15.37;36.45
73936;BME280;62287;50.858;0.252;2023-04-25T01:32:48;101259.34;;;15.12;36.18
73936;BME280;62287;50.858;0.252;2023-04-25T01:33:21;101260.23;;;15.12;36.25
73936;BME280;62287;50.858;0.252;2023-04-25T01:33:52;101259.89;;;15.15;36.21
73936;BME280;62287;50.858;0.252;2023-04-25T01:34:23;101260.13;;;14.73;36.21
73936;BME280;62287;50.858;0.252;2023-04-25T01:34:54;101258.45;;;15.09;36.21
73936;BME280;62287;50.858;0.252;2023-04-25T01:35:25;101259.37;;;15.15;36.15
73936;BME280;62287;50.858;0.252;2023-04-25T01:35:56;101260.00;;;14.79;36.13
73936;BME280;62287;50.858;0.252;2023-04-25T01:36:28;101261.59;;;15.37;35.99
73936;BME280;62287;50.858;0.252;2023-04-25T01:37:00;101260.03;;;15.17;36.03
73936;BME280;62287;50.858;0.252;2023-04-25T01:37:31;101258.80;;;14.93;36.04
73936;BME280;62287;50.858;0.252;2023-04-25T01:38:02;101260.47;;;15.02;35.87
73936;BME280;62287;50.858;0.252;2023-04-25T01:38:33;101257.69;;;14.98;35.84
73936;BME280;62287;50.858;0.252;2023-04-25T01:39:05;101259.98;;;14.83;35.97
73936;BME280;62287;50.858;0.252;2023-04-25T01:39:36;101262.35;;;15.06;35.85
73936;BME280;62287;50.858;0.252;2023-04-25T01:40:08;101258.88;;;15.39;35.71
73936;BME280;62287;50.858;0.252;2023-04-25T01:40:40;101259.58;;;15.02;35.74
73936;BME280;62287;50.858;0.252;2023-04-25T01:41:12;101263.07;;;15.24;35.91
73936;BME280;62287;50.858;0.252;2023-04-25T01:41:43;101260.86;;;15.36;35.79
73936;BME280;62287;50.858;0.252;2023-04-25T01:42:15;101260.77;;;15.05;35.94
73936;BME280;62287;50.858;0.252;2023-04-25T01:42:51;101260.69;;;15.16;35.97
73936;BME280;62287;50.858;0.252;2023-04-25T01:43:22;101262.02;;;15.15;35.99
73936;BME280;62287;50.858;0.252;2023-04-25T01:43:53;101259.42;;;14.70;35.98
73936;BME280;62287;50.858;0.252;2023-04-25T01:44:25;101261.93;;;15.36;35.85
73936;BME280;62287;50.858;0.252;2023-04-25T01:44:56;101261.15;;;15.09;35.77
73936;BME280;62287;50.858;0.252;2023-04-25T01:45:27;101260.88;;;15.37;35.78
73936;BME280;62287;50.858;0.252;2023-04-25T01:45:58;101264.63;;;14.92;35.78
73936;BME280;62287;50.858;0.252;2023-04-25T01:46:29;101263.30;;;15.28;35.87
73936;BME280;62287;50.858;0.252;2023-04-25T01:47:00;101263.40;;;15.42;35.91
73936;BME280;62287;50.858;0.252;2023-04-25T01:47:31;101262.83;;;15.07;35.99
73936;BME280;62287;50.858;0.252;2023-04-25T01:48:02;101262.54;;;15.14;36.01
73936;BME280;62287;50.858;0.252;2023-04-25T01:48:33;101263.75;;;15.02;36.07
73936;BME280;62287;50.858;0.252;2023-04-25T01:49:04;101263.84;;;15.18;35.98
73936;BME280;62287;50.858;0.252;2023-04-25T01:49:36;101265.16;;;15.24;35.98
73936;BME280;62287;50.858;0.252;2023-04-25T01:50:08;101265.11;;;14.70;36.06
73936;BME280;62287;50.858;0.252;2023-04-25T01:50:39;101264.83;;;15.01;36.14
73936;BME280;62287;50.858;0.252;2023-04-25T01:51:11;101263.46;;;14.99;36.11
73936;BME280;62287;50.858;0.252;2023-04-25T01:51:42;101266.38;;;14.75;36.03
73936;BME280;62287;50.858;0.252;2023-04-25T01:52:13;101266.10;;;14.95;35.98
73936;BME280;62287;50.858;0.252;2023-04-25T01:52:44;101266.20;;;15.36;36.06
73936;BME280;62287;50.858;0.252;2023-04-25T01:53:15;101266.74;;;15.03;35.97
73936;BME280;62287;50.858;0.252;2023-04-25T01:53:46;101265.47;;;14.72;35.95
73936;BME280;62287;50.858;0.252;2023-04-25T01:54:18;101267.51;;;15.28;35.87
73936;BME280;62287;50.858;0.252;2023-04-25T01:54:50;101266.10;;;14.99;35.97
73936;BME280;62287;50.858;0.252;2023-04-25T01:55:21;101265.53;;;14.93;36.09
73936;BME280;62287;50.858;0.252;2023-04-25T01:55:52;101263.76;;;14.75;35.96
73936;BME280;62287;50.858;0.252;2023-04-25T01:56:23;101263.16;;;14.67;35.93
73936;BME280;62287;50.858;0.252;2023-04-25T01:56:57;101263.44;;;15.46;35.87
73936;BME280;62287;50.858;0.252;2023-04-25T01:57:28;101261.64;;;15.07;35.91
73936;BME280;62287;50.858;0.252;2023-04-25T01:58:00;101262.16;;;15.17;35.86
73936;BME280;62287;50.858;0.252;2023-04-25T01:58:32;101261.24;;;14.81;35.80
73936;BME280;62287;50.858;0.252;2023-04-25T01:59:04;101255.71;;;15.20;35.81
73936;BME280;62287;50.858;0.252;2023-04-25T01:59:35;101257.66;;;14.94;35.90
73936;BME280;62287;50.858;0.252;2023-04-25T02:00:08;101256.52;;;14.95;36.01
73936;BME280;62287;50.858;0.252;2023-04-25T02:00:39;101253.11;;;14.72;35.90
73936;BME280;62287;50.858;0.252;2023-04-25T02:01:10;101255.23;;;14.93;35.97
73936;BME280;62287;50.858;0.252;2023-04-25T02:01:41;101250.05;;;14.76;35.89
73936;BME280;62287;50.858;0.252;2023-04-25T02:02:12;101253.57;;;15.19;35.79
73936;BME280;62287;50.858;0.252;2023-04-25T02:02:43;101248.26;;;15.04;35.85
73936;BME280;62287;50.858;0.252;2023-04-25T02:03:13;101251.51;;;15.27;35.71
73936;BME280;62287;50.858;0.252;2023-04-25T02:03:44;101252.12;;;15.13;35.74
73936;BME280;62287;50.858;0.252;2023-04-25T02:04:15;101249.59;;;15.21;35.74
73936;BME280;62287;50.858;0.252;2023-04-25T02:04:46;101252.47;;;14.77;35.75
73936;BME280;62287;50.858;0.252;2023-04-25T02:05:17;101248.57;;;15.04;35.85
73936;BME280;62287;50.858;0.252;2023-04-25T02:05:48;101250.25;;;14.96;35.93
73936;BME280;62287;50.858;0.252;2023-04-25T02:06:19;101251.14;;;15.37;35.93
73936;BME280;62287;50.858;0.252;2023-04-25T02:06:50;101251.54;;;14.98;35.96
73936;BME280;62287;50.858;0.252;2023-04-25T02:07:21;101253.17;;;14.83;36.02
73936;BME280;62287;50.858;0.252;2023-04-25T02:07:52;101254.62;;;14.83;36.09
73936;BME280;62287;50.858;0.252;2023-04-25T02:08:23;101255.01;;;15.07;35.87
73936;BME280;62287;50.858;0.252;2023-04-25T02:08:54;101256.73;;;15.06;35.81
73936;BME280;62287;50.858;0.252;2023-04-25T02:09:25;101258.29;;;15.07;35.80
73936;BME280;62287;50.858;0.252;2023-04-25T02:09:56;101256.75;;;15.12;35.80
73936;BME280;62287;50.858;0.252;2023-04-25T02:10:27;101253.61;;;14.73;35.77
73936;BME280;62287;50.858;0.252;2023-04-25T02:10:58;101257.48;;;15.13;35.78
73936;BME280;62287;50.858;0.252;2023-04-25T02:11:29;101257.31;;;15.04;35.75
73936;BME280;62287;50.858;0.252;2023-04-25T02:12:00;101257.35;;;14.95;35.76
73936;BME280;62287;50.858;0.252;2023-04-25T02:12:31;101257.80;;;15.09;35.69
73936;BME280;62287;50.858;0.252;2023-04-25T02:13:03;101258.82;;;15.10;35.73
73936;BME280;62287;50.858;0.252;2023-04-25T02:13:34;101258.52;;;15.24;35.63
73936;BME280;62287;50.858;0.252;2023-04-25T02:14:05;101259.57;;;14.54;35.82
73936;BME280;62287;50.858;0.252;2023-04-25T02:14:36;101260.60;;;14.91;35.82
73936;BME280;62287;50.858;0.252;2023-04-25T02:15:07;101261.65;;;15.05;35.76
73936;BME280;62287;50.858;0.252;2023-04-25T02:15:38;101263.10;;;15.03;35.79
73936;BME280;62287;50.858;0.252;2023-04-25T02:16:09;101263.57;;;15.00;35.89
73936;BME280;62287;50.858;0.252;2023-04-25T02:16:40;101265.62;;;15.05;35.82
73936;BME280;62287;50.858;0.252;2023-04-25T02:17:11;101266.39;;;15.03;35.80
73936;BME280;62287;50.858;0.252;2023-04-25T02:17:42;101265.63;;;15.45;35.77
73936;BME280;62287;50.858;0.252;2023-04-25T02:18:13;101266.53;;;14.51;35.92
73936;BME280;62287;50.858;0.252;2023-04-25T02:18:44;101266.92;;;14.71;35.76
73936;BME280;62287;50.858;0.252;2023-04-25T02:19:15;101268.18;;;15.06;35.75
73936;BME280;62287;50.858;0.252;2023-04-25T02:19:46;101266.97;;;14.92;35.83
73936;BME280;62287;50.858;0.252;2023-04-25T02:20:17;101268.17;;;14.99;35.83
73936;BME280;62287;50.858;0.252;2023-04-25T02:20:48;101271.06;;;15.04;35.81
73936;BME280;62287;50.858;0.252;2023-04-25T02:21:19;101269.69;;;15.12;35.79
73936;BME280;62287;50.858;0.252;2023-04-25T02:21:50;101273.87;;;15.00;35.83
73936;BME280;62287;50.858;0.252;2023-04-25T02:22:21;101273.17;;;14.68;35.77
73936;BME280;62287;50.858;0.252;2023-04-25T02:22:52;101274.26;;;14.99;35.86
73936;BME280;62287;50.858;0.252;2023-04-25T02:23:23;101277.28;;;14.51;35.95
73936;BME280;62287;50.858;0.252;2023-04-25T02:23:54;101276.49;;;14.98;35.85
73936;BME280;62287;50.858;0.252;2023-04-25T02:24:25;101279.57;;;14.99;35.82
73936;BME280;62287;50.858;0.252;2023-04-25T02:24:56;101282.36;;;14.98;35.81
73936;BME280;62287;50.858;0.252;2023-04-25T02:25:27;101281.02;;;14.98;35.80
73936;BME280;62287;50.858;0.252;2023-04-25T02:25:58;101284.13;;;15.09;35.73
73936;BME280;62287;50.858;0.252;2023-04-25T02:26:29;101285.05;;;14.93;35.81
73936;BME280;62287;50.858;0.252;2023-04-25T02:27:00;101284.63;;;15.35;35.80
73936;BME280;62287;50.858;0.252;2023-04-25T02:27:31;101285.84;;;15.11;35.85
73936;BME280;62287;50.858;0.252;2023-04-25T02:28:02;101286.18;;;15.21;35.90
73936;BME280;62287;50.858;0.252;2023-04-25T02:28:33;101288.66;;;14.92;35.91
73936;BME280;62287;50.858;0.252;2023-04-25T02:29:04;101289.66;;;14.87;35.87
73936;BME280;62287;50.858;0.252;2023-04-25T02:29:35;101289.26;;;14.99;35.93
73936;BME280;62287;50.858;0.252;2023-04-25T02:30:07;101290.16;;;14.98;35.86
73936;BME280;62287;50.858;0.252;2023-04-25T02:30:38;101290.76;;;14.81;35.97
73936;BME280;62287;50.858;0.252;2023-04-25T02:31:09;101292.35;;;14.96;35.89
73936;BME280;62287;50.858;0.252;2023-04-25T02:31:40;101293.57;;;14.87;35.95
73936;BME280;62287;50.858;0.252;2023-04-25T02:32:11;101295.45;;;14.98;35.83
73936;BME280;62287;50.858;0.252;2023-04-25T02:32:42;101292.97;;;14.72;35.76
73936;BME280;62287;50.858;0.252;2023-04-25T02:33:13;101291.73;;;15.12;35.72
73936;BME280;62287;50.858;0.252;2023-04-25T02:33:44;101294.23;;;15.02;35.77
73936;BME280;62287;50.858;0.252;2023-04-25T02:34:15;101296.16;;;15.08;35.71
73936;BME280;62287;50.858;0.252;2023-04-25T02:34:46;101293.92;;;14.81;35.87
73936;BME280;62287;50.858;0.252;2023-04-25T02:35:17;101294.26;;;15.00;35.79
73936;BME280;62287;50.858;0.252;2023-04-25T02:35:48;101295.86;;;14.87;35.89
73936;BME280;62287;50.858;0.252;2023-04-25T02:36:19;101296.49;;;14.89;35.99
73936;BME280;62287;50.858;0.252;2023-04-25T02:36:50;101296.43;;;14.91;35.94
73936;BME280;62287;50.858;0.252;2023-04-25T02:37:21;101294.69;;;15.10;35.87
73936;BME280;62287;50.858;0.252;2023-04-25T02:37:52;101294.34;;;14.95;35.90
73936;BME280;62287;50.858;0.252;2023-04-25T02:38:23;101296.51;;;14.86;35.96
73936;BME280;62287;50.858;0.252;2023-04-25T02:38:54;101297.64;;;14.81;36.01
73936;BME280;62287;50.858;0.252;2023-04-25T02:39:25;101294.85;;;14.91;35.89
73936;BME280;62287;50.858;0.252;2023-04-25T02:39:56;101295.07;;;15.29;35.88
73936;BME280;62287;50.858;0.252;2023-04-25T02:40:27;101296.49;;;14.83;35.97
73936;BME280;62287;50.858;0.252;2023-04-25T02:40:59;101294.20;;;14.75;36.02
73936;BME280;62287;50.858;0.252;2023-04-25T02:41:30;101295.15;;;15.18;36.02
73936;BME280;62287;50.858;0.252;2023-04-25T02:42:01;101295.47;;;15.00;35.83
73936;BME280;62287;50.858;0.252;2023-04-25T02:42:32;101297.82;;;15.00;35.83
73936;BME280;62287;50.858;0.252;2023-04-25T02:43:03;101297.85;;;14.89;35.91
73936;BME280;62287;50.858;0.252;2023-04-25T02:43:34;101296.83;;;14.92;35.85
73936;BME280;62287;50.858;0.252;2023-04-25T02:44:05;101295.46;;;15.02;35.85
73936;BME280;62287;50.858;0.252;2023-04-25T02:44:36;101298.54;;;14.88;35.90
73936;BME280;62287;50.858;0.252;2023-04-25T02:45:08;101298.59;;;14.89;35.87